Buckhorn, Mississippi
Current Conditions -  °F | °C
As of 1:15 AM on Monday 24 Nov 2014 (Local Time) from KUOX Reporting Station
Clear Clear  
Wind Chill: 59°   Ceiling: Unl
Heat Index: 59°   Visibility: 10mi
Dew Point: 54°   Wind: 15mph
Humidity: 82%   Direction: 210°SSW
Pressure: 29.53"   Gusts: 22mph
Location:  34.161°N, 89.1965°W
Report Text: KUOX 240715Z AUTO 21013G19KT 10SM CLR 15/12 A2953 RMK AO2 PWINO PNO
Loading
Personal Weather Stations






























Interactive Weather Map New forecast layout! Learn more

10-Day Weather Forecast

Advertisements
Track Severe Weather on mobile